DIYO

Yamoussoukro Airport

Yamoussoukro, Côte D’Ivoire
TAF DIYO 251700Z 2518/2618 21006KT 9999 SCT012 PROB30 TEMPO 2518/2524 TS BKN012 FEW020CB PROB30 2604/2608 4000 BR TEMPO 2608/2614 BKN010 PROB40 TEMPO 2614/2618 TS BKN011 FEW020CB
Issued Valid From Valid To
Apr-25 @ 17:00 UTC
(57 minutes ago)
Apr-25 @ 18:00 UTC
(in 3 minutes)
Apr-26 @ 18:00 UTC
(in 24 hours)
Apr-25 @ 18:00 to Apr-26 @ 18:00
TAF DIYO 251700Z 2518/2618 21006KT 9999 SCT012
Wind Visibility Clouds
210° at 6 knots 10,000+ meters
  • Scattered at 1,200' AGL
Temporary  (Probability 30%) Apr-25 @ 18:00 to Apr-26 @ 00:00
PROB30 TEMPO 2518/2524 TS BKN012 FEW020CB
Clouds Conditions
  • Broken at 1,200' AGL
  • Few at 2,000' AGL
  • Thunderstorm
Probable  (Probability 30%) Apr-26 @ 04:00 to Apr-26 @ 08:00
PROB30 2604/2608 4000 BR
Visibility Conditions
4,007 meters
  • Mist
Temporary Apr-26 @ 08:00 to Apr-26 @ 14:00
TEMPO 2608/2614 BKN010
Clouds
  • Broken at 1,000' AGL
Temporary  (Probability 40%) Apr-26 @ 14:00 to Apr-26 @ 18:00
PROB40 TEMPO 2614/2618 TS BKN011 FEW020CB
Clouds Conditions
  • Broken at 1,100' AGL
  • Few at 2,000' AGL
  • Thunderstorm
TAF DIYO 251700Z 2518/2618 21006KT 9999 SCT012 PROB30 TEMPO 2518/2524 TS BKN012 FEW020CB PROB30 2604/2608 4000 BR TEMPO 2608/2614 BKN010 PROB40 TEMPO 2614/2618 TS BKN011 FEW020CB
Issued Apr-25 @ 17:00 UTC
(57 minutes ago)
Valid From Apr-25 @ 18:00 UTC
(in 3 minutes)
Valid To Apr-26 @ 18:00 UTC
(in 24 hours)
Apr-25 @ 18:00 - Apr-26 @ 18:00
Wind Visibility
210° at 6 knots 10,000+ meters
Clouds
  • Scattered at 1,200' AGL
Probability 30% Temporary Apr-25 @ 18:00 - Apr-26 @ 00:00
Clouds
  • Broken at 1,200' AGL
  • Few at 2,000' AGL
Conditions
  • Thunderstorm
Probability 30% Probable Apr-26 @ 04:00 - Apr-26 @ 08:00
Conditions
  • Mist
Temporary Apr-26 @ 08:00 - Apr-26 @ 14:00
Clouds
  • Broken at 1,000' AGL
Probability 40% Temporary Apr-26 @ 14:00 - Apr-26 @ 18:00
Clouds
  • Broken at 1,100' AGL
  • Few at 2,000' AGL
Conditions
  • Thunderstorm